Time;durP1;ratioP1;P1;durP2;ratioP2;P2;SDS_P1;SDS_P2;PMS_P1;PMS_P2;Temp;Humidity;BMP_temperature;BMP_pressure;BME280_temperature;BME280_humidity;BME280_pressure;Samples;Min_cycle;Max_cycle;Signal;HPM_P1;HPM_P2
2022/05/06 00:00:10;;;;;;;5.20;2.45;;;11.70;99.90;;;;;;5083900;28;20040;-69
2022/05/06 00:02:37;;;;;;;3.40;2.00;;;11.70;99.90;;;;;;5086049;28;20040;-69
2022/05/06 00:05:05;;;;;;;3.25;2.15;;;11.70;99.90;;;;;;5093100;28;20484;-69
2022/05/06 00:07:32;;;;;;;3.30;2.05;;;11.70;99.90;;;;;;5090186;28;20040;-69
2022/05/06 00:10:01;;;;;;;3.20;2.17;;;11.70;99.90;;;;;;5080466;28;20557;-69
2022/05/06 00:12:27;;;;;;;2.88;2.00;;;11.70;99.90;;;;;;5072602;28;20098;-69
2022/05/06 00:14:54;;;;;;;6.72;2.40;;;11.70;99.90;;;;;;5072472;28;20045;-69
2022/05/06 00:17:24;;;;;;;3.80;2.13;;;11.80;99.90;;;;;;5076213;28;20047;-69
2022/05/06 00:19:51;;;;;;;;;;;11.70;99.90;;;;;;5084353;28;20119;-69
2022/05/06 00:22:18;;;;;;;4.68;2.00;;;11.70;99.90;;;;;;5092740;28;19927;-69
2022/05/06 00:24:45;;;;;;;3.47;2.05;;;11.70;99.90;;;;;;5090061;28;20047;-69
2022/05/06 00:27:13;;;;;;;2.58;2.08;;;11.80;99.90;;;;;;5082020;28;20344;-69
2022/05/06 00:29:40;;;;;;;3.55;2.13;;;11.80;99.90;;;;;;5074344;28;20052;-69
2022/05/06 00:32:07;;;;;;;4.07;1.92;;;11.70;99.90;;;;;;5092833;28;20141;-69
2022/05/06 00:34:33;;;;;;;2.40;2.20;;;11.70;99.90;;;;;;5073800;28;20040;-69
2022/05/06 00:37:00;;;;;;;3.53;2.15;;;11.80;99.90;;;;;;5084044;28;20563;-69
2022/05/06 00:39:27;;;;;;;4.53;2.10;;;11.70;99.90;;;;;;5073984;28;20488;-69
2022/05/06 00:41:54;;;;;;;3.20;2.08;;;11.70;99.90;;;;;;5072153;28;20550;-69
2022/05/06 00:44:22;;;;;;;2.55;1.90;;;11.70;99.90;;;;;;5081945;28;20040;-69
2022/05/06 00:46:52;;;;;;;4.03;2.00;;;11.70;99.90;;;;;;5092113;28;20054;-69
2022/05/06 00:49:20;;;;;;;3.47;2.15;;;11.70;99.90;;;;;;5074123;28;20059;-69
2022/05/06 00:51:48;;;;;;;3.72;2.13;;;11.70;99.90;;;;;;5067190;28;20416;-69
2022/05/06 00:54:15;;;;;;;2.53;2.15;;;11.70;99.90;;;;;;5090524;28;20039;-69
2022/05/06 00:56:46;;;;;;;;;;;11.70;99.90;;;;;;5074537;28;20134;-68
2022/05/06 00:59:15;;;;;;;3.10;2.28;;;11.70;99.90;;;;;;5071939;28;20035;-69
2022/05/06 01:01:41;;;;;;;3.05;2.45;;;11.70;99.90;;;;;;5083246;28;20074;-69
2022/05/06 01:04:10;;;;;;;4.70;2.08;;;11.70;99.90;;;;;;5073938;28;20044;-69
2022/05/06 01:06:38;;;;;;;3.47;1.98;;;11.70;99.90;;;;;;5073865;28;20044;-69
2022/05/06 01:09:05;;;;;;;2.95;2.50;;;11.70;99.90;;;;;;5072583;28;20079;-69
2022/05/06 01:11:33;;;;;;;3.38;2.33;;;11.70;99.90;;;;;;5084034;28;20036;-69
2022/05/06 01:14:02;;;;;;;2.97;2.50;;;11.70;99.90;;;;;;5073824;28;20036;-69
2022/05/06 01:16:34;;;;;;;3.00;2.10;;;11.70;99.90;;;;;;5073869;28;20408;-69
2022/05/06 01:19:05;;;;;;;2.90;2.13;;;11.80;99.90;;;;;;5064261;28;20570;-69
2022/05/06 01:21:41;;;;;;;5.18;2.58;;;11.80;99.90;;;;;;5073182;28;20052;-69
2022/05/06 01:24:09;;;;;;;3.60;2.80;;;11.80;99.90;;;;;;5073804;28;20076;-69
2022/05/06 01:26:54;;;;;;;8.73;2.83;;;11.80;99.90;;;;;;5080703;28;20459;-69
2022/05/06 01:29:22;;;;;;;3.83;2.83;;;11.80;99.90;;;;;;5090690;28;20044;-69
2022/05/06 01:31:51;;;;;;;3.38;2.65;;;11.80;99.90;;;;;;5091534;28;20412;-69
2022/05/06 01:34:22;;;;;;;3.58;2.63;;;11.90;99.90;;;;;;5086847;28;20098;-69
2022/05/06 01:36:53;;;;;;;4.63;3.10;;;11.90;99.90;;;;;;5086612;28;20048;-69
2022/05/06 01:39:26;;;;;;;4.20;2.88;;;11.90;99.90;;;;;;5091482;28;20036;-68
2022/05/06 01:41:55;;;;;;;2.83;2.22;;;11.90;99.90;;;;;;5073344;28;20063;-69
2022/05/06 01:44:35;;;;;;;3.70;2.67;;;12.00;99.90;;;;;;5056555;28;20051;-69
2022/05/06 01:47:05;;;;;;;3.60;1.85;;;12.00;99.90;;;;;;5056827;28;20056;-69
2022/05/06 01:49:38;;;;;;;4.82;2.72;;;11.90;99.90;;;;;;5053343;28;20413;-69
2022/05/06 01:52:07;;;;;;;2.92;2.40;;;11.90;99.90;;;;;;5054226;28;20166;-69
2022/05/06 01:54:37;;;;;;;3.15;2.20;;;12.00;99.90;;;;;;5064655;28;20044;-69
2022/05/06 01:57:05;;;;;;;6.15;2.28;;;12.00;99.90;;;;;;5073801;28;20036;-69
2022/05/06 01:59:32;;;;;;;4.53;2.55;;;11.90;99.90;;;;;;5077315;28;20048;-69
2022/05/06 02:02:11;;;;;;;4.18;2.05;;;11.90;99.90;;;;;;5075453;28;20044;-69
2022/05/06 02:07:28;;;;;;;2.40;2.20;;;11.90;99.90;;;;;;5077481;28;20040;-69
2022/05/06 02:09:57;;;;;;;6.80;2.33;;;11.90;99.90;;;;;;5073175;28;20051;-69
2022/05/06 02:12:27;;;;;;;3.60;2.35;;;12.00;99.90;;;;;;5083634;28;20075;-69
2022/05/06 02:15:07;;;;;;;7.38;2.67;;;12.00;99.90;;;;;;5057086;28;20504;-69
2022/05/06 02:18:00;;;;;;;4.32;2.60;;;11.90;99.90;;;;;;5056985;28;20428;-69
2022/05/06 02:20:53;;;;;;;2.72;2.10;;;11.90;99.90;;;;;;5069616;28;20048;-69
2022/05/06 02:23:33;;;;;;;3.97;2.22;;;11.90;99.90;;;;;;5073656;28;20132;-69
2022/05/06 02:26:16;;;;;;;3.17;2.10;;;11.80;99.90;;;;;;5057183;28;20041;-69
2022/05/06 02:28:49;;;;;;;3.33;2.40;;;11.70;99.90;;;;;;5056659;28;20041;-69
2022/05/06 02:34:03;;;;;;;3.17;2.30;;;11.70;99.90;;;;;;5056802;28;20048;-68
2022/05/06 02:36:34;;;;;;;2.50;2.10;;;11.70;99.90;;;;;;5056908;28;20044;-69
2022/05/06 02:39:02;;;;;;;4.88;2.45;;;11.80;99.90;;;;;;5061018;28;20044;-69
2022/05/06 02:41:32;;;;;;;4.90;2.30;;;11.80;99.90;;;;;;5056422;28;20170;-68
2022/05/06 02:43:58;;;;;;;2.83;2.50;;;11.90;99.90;;;;;;5074225;28;20047;-69
2022/05/06 02:46:34;;;;;;;4.35;2.60;;;11.90;99.90;;;;;;5077447;28;20068;-69
2022/05/06 02:49:03;;;;;;;3.03;2.38;;;11.90;99.90;;;;;;5051682;28;20036;-69
2022/05/06 02:51:31;;;;;;;4.60;3.13;;;11.90;99.90;;;;;;5076277;28;20149;-69
2022/05/06 02:53:58;;;;;;;4.55;2.63;;;11.90;99.90;;;;;;5076265;28;20048;-68
2022/05/06 02:56:32;;;;;;;3.53;2.90;;;11.90;99.90;;;;;;5066449;28;20040;-69
2022/05/06 02:59:01;;;;;;;5.18;2.75;;;11.90;99.90;;;;;;5072819;28;20577;-69
2022/05/06 03:01:32;;;;;;;8.00;3.10;;;11.90;99.90;;;;;;5076125;28;20117;-69
2022/05/06 03:04:04;;;;;;;5.13;3.15;;;11.90;99.90;;;;;;5067083;28;20071;-68
2022/05/06 03:06:32;;;;;;;5.57;3.20;;;11.90;99.90;;;;;;5076709;28;20055;-69
2022/05/06 03:08:59;;;;;;;6.57;3.60;;;11.90;99.90;;;;;;5074780;28;20131;-69
2022/05/06 03:11:31;;;;;;;5.53;3.28;;;11.90;99.90;;;;;;5075103;28;20040;-69
2022/05/06 03:14:07;;;;;;;7.57;3.38;;;11.90;99.90;;;;;;5067759;28;20599;-69
2022/05/06 03:16:56;;;;;;;;;;;12.00;99.90;;;;;;5076744;28;20052;-68
2022/05/06 03:19:23;;;;;;;5.47;3.50;;;12.00;99.90;;;;;;5092890;28;19924;-69
2022/05/06 03:21:53;;;;;;;6.68;3.63;;;12.00;99.90;;;;;;5072543;28;20070;-69
2022/05/06 03:24:20;;;;;;;5.25;3.88;;;12.00;99.90;;;;;;5059026;28;20105;-69
2022/05/06 03:26:48;;;;;;;5.63;3.85;;;12.00;99.90;;;;;;5075884;28;20075;-68
2022/05/06 03:29:15;;;;;;;7.85;3.05;;;12.00;99.90;;;;;;5068960;28;20144;-68
2022/05/06 03:31:41;;;;;;;4.88;3.65;;;12.00;99.90;;;;;;5083545;28;20045;-69
2022/05/06 03:34:12;;;;;;;3.42;2.97;;;12.00;99.90;;;;;;5073410;28;20082;-71
2022/05/06 03:37:31;;;;;;;5.47;3.17;;;12.00;99.90;;;;;;5088349;22;20051;-75
2022/05/06 03:39:57;;;;;;;7.07;3.13;;;12.00;99.90;;;;;;5058786;28;20102;-75
2022/05/06 03:42:26;;;;;;;6.90;4.30;;;12.00;99.90;;;;;;5075339;28;20090;-75
2022/05/06 03:44:54;;;;;;;6.90;4.60;;;12.00;99.90;;;;;;5074813;28;20408;-74
2022/05/06 03:47:21;;;;;;;7.47;4.85;;;12.00;99.90;;;;;;5093434;28;20070;-74
2022/05/06 03:51:20;;;;;;;6.80;4.53;;;12.00;99.90;;;;;;5091962;28;20047;-74
2022/05/06 03:52:36;;;;;;;6.80;4.85;;;11.90;99.90;;;;;;5092167;28;20127;-75
2022/05/06 03:55:03;;;;;;;6.88;4.93;;;12.00;99.90;;;;;;5074152;28;20162;-74
2022/05/06 03:57:30;;;;;;;8.52;4.97;;;12.00;99.90;;;;;;5075261;28;20043;-74
2022/05/06 03:59:57;;;;;;;7.43;5.10;;;11.90;99.90;;;;;;5074679;28;20492;-75
2022/05/06 04:02:29;;;;;;;7.30;4.93;;;11.90;99.90;;;;;;5074414;28;20058;-74
2022/05/06 04:04:56;;;;;;;8.65;5.63;;;11.90;99.90;;;;;;5088890;28;20115;-75
2022/05/06 04:07:24;;;;;;;10.80;5.82;;;11.90;99.90;;;;;;5074988;28;20047;-75
2022/05/06 04:09:51;;;;;;;9.73;5.90;;;11.90;99.90;;;;;;5092939;28;20032;-74
2022/05/06 04:12:21;;;;;;;6.75;5.45;;;11.80;99.90;;;;;;5089761;28;20036;-74
2022/05/06 04:14:53;;;;;;;9.40;6.22;;;11.80;99.90;;;;;;5074992;28;20040;-75
2022/05/06 04:17:20;;;;;;;9.18;6.15;;;11.80;99.90;;;;;;5075111;28;20043;-74
2022/05/06 04:25:24;;;;;;;9.35;6.00;;;11.80;99.90;;;;;;5074601;28;20043;-74
2022/05/06 04:27:53;;;;;;;9.35;6.05;;;11.80;99.90;;;;;;5074724;28;20479;-75
2022/05/06 04:30:21;;;;;;;8.90;5.93;;;11.80;99.90;;;;;;5074209;28;20037;-75
2022/05/06 04:32:59;;;;;;;;;;;11.80;99.90;;;;;;5073821;28;20496;-74
2022/05/06 04:35:26;;;;;;;5.68;4.50;;;11.80;99.90;;;;;;5074247;28;19920;-74
2022/05/06 04:37:54;;;;;;;23.08;6.63;;;11.70;99.90;;;;;;5074451;28;20051;-75
2022/05/06 04:40:21;;;;;;;5.75;4.28;;;11.70;99.90;;;;;;5073388;28;20048;-75
2022/05/06 04:42:48;;;;;;;8.02;4.45;;;11.60;99.90;;;;;;5092432;28;20400;-75
2022/05/06 04:45:18;;;;;;;6.80;4.63;;;11.60;99.90;;;;;;5074078;28;20036;-74
2022/05/06 04:47:57;;;;;;;6.03;4.50;;;11.60;99.90;;;;;;5069924;28;20044;-75
2022/05/06 04:50:27;;;;;;;10.70;5.40;;;11.60;99.90;;;;;;5073728;28;20408;-75
2022/05/06 04:52:53;;;;;;;9.95;5.60;;;11.50;99.90;;;;;;5074077;28;20098;-75
2022/05/06 04:55:21;;;;;;;9.20;5.35;;;11.50;99.90;;;;;;5074189;28;20445;-75
2022/05/06 04:57:48;;;;;;;7.75;4.45;;;11.50;99.90;;;;;;5069313;28;20051;-74
2022/05/06 05:00:15;;;;;;;8.98;5.50;;;11.50;99.90;;;;;;5047017;28;20048;-75
2022/05/06 05:02:46;;;;;;;6.43;4.75;;;11.50;99.90;;;;;;5073505;28;20055;-74
2022/05/06 05:05:12;;;;;;;;;;;11.60;99.90;;;;;;5073744;28;20048;-74
2022/05/06 05:07:40;;;;;;;8.90;4.32;;;11.50;99.90;;;;;;5072291;28;20030;-75
2022/05/06 05:10:10;;;;;;;6.28;4.45;;;11.60;99.90;;;;;;5099312;28;20123;-75
2022/05/06 05:12:37;;;;;;;12.02;4.80;;;11.60;99.90;;;;;;5073013;28;20036;-75
2022/05/06 05:15:04;;;;;;;10.77;6.15;;;11.50;99.90;;;;;;5072576;28;20411;-75
2022/05/06 05:17:33;;;;;;;10.25;5.38;;;11.50;99.90;;;;;;5073302;28;20044;-75
2022/05/06 05:20:01;;;;;;;9.32;4.57;;;11.60;99.90;;;;;;5072920;28;20385;-74
2022/05/06 05:22:33;;;;;;;8.02;4.68;;;11.60;99.90;;;;;;5073443;28;20040;-75
2022/05/06 05:25:04;;;;;;;7.90;4.57;;;11.60;99.90;;;;;;5072091;28;20097;-74
2022/05/06 05:27:32;;;;;;;9.95;5.30;;;11.60;99.90;;;;;;5073155;28;20048;-74
2022/05/06 05:30:00;;;;;;;11.82;4.53;;;11.60;99.90;;;;;;5072741;28;20468;-75
2022/05/06 05:32:30;;;;;;;8.82;4.40;;;11.60;99.90;;;;;;5072930;28;20142;-73
2022/05/06 05:34:57;;;;;;;6.60;4.65;;;11.60;99.90;;;;;;5082897;28;20093;-73
2022/05/06 05:37:27;;;;;;;6.95;3.85;;;11.70;99.90;;;;;;5053285;28;20040;-73
2022/05/06 05:39:59;;;;;;;4.93;3.28;;;11.70;99.90;;;;;;5053351;28;20040;-74
2022/05/06 05:42:29;;;;;;;6.55;3.58;;;11.70;99.90;;;;;;5053470;28;20048;-74
2022/05/06 05:50:36;;;;;;;6.82;4.13;;;11.50;99.90;;;;;;5052896;28;20037;-74
2022/05/06 05:53:05;;;;;;;19.88;4.05;;;11.60;99.90;;;;;;5061555;28;20040;-74
2022/05/06 05:55:32;;;;;;;7.82;3.78;;;11.60;99.90;;;;;;5090095;28;20075;-74
2022/05/06 05:58:04;;;;;;;7.40;3.70;;;11.70;99.90;;;;;;5069139;28;20044;-74
2022/05/06 06:00:31;;;;;;;7.47;3.45;;;11.70;99.90;;;;;;5072439;28;20032;-74
2022/05/06 06:03:01;;;;;;;6.30;3.28;;;11.70;99.90;;;;;;5073304;28;20105;-74
2022/05/06 06:05:32;;;;;;;9.50;3.22;;;11.70;99.90;;;;;;5073266;28;20041;-74
2022/05/06 06:07:59;;;;;;;9.30;3.70;;;11.70;99.90;;;;;;5072447;28;20036;-74
2022/05/06 06:10:26;;;;;;;4.10;3.10;;;11.80;99.90;;;;;;5072874;28;20076;-73
2022/05/06 06:13:04;;;;;;;6.10;2.72;;;11.70;99.90;;;;;;5073161;28;20036;-74
2022/05/06 06:15:34;;;;;;;5.10;2.92;;;11.60;99.90;;;;;;5070053;28;20047;-74
2022/05/06 06:18:00;;;;;;;4.38;3.10;;;11.70;99.90;;;;;;5086935;28;20106;-74
2022/05/06 06:20:29;;;;;;;4.25;3.15;;;11.70;99.90;;;;;;5072214;28;20032;-75
2022/05/06 06:22:56;;;;;;;4.70;3.10;;;12.20;99.90;;;;;;5072556;28;20040;-74
2022/05/06 06:25:24;;;;;;;7.70;2.90;;;11.70;99.90;;;;;;5071706;28;20044;-73
2022/05/06 06:27:54;;;;;;;4.75;2.85;;;11.80;99.90;;;;;;5073398;28;20047;-74
2022/05/06 06:30:21;;;;;;;3.92;2.80;;;11.80;99.90;;;;;;5072257;28;20074;-76
2022/05/06 06:32:57;;;;;;;8.40;3.20;;;11.80;99.90;;;;;;5070839;28;20047;-76
2022/05/06 06:35:24;;;;;;;4.90;3.55;;;11.80;99.90;;;;;;5069790;28;20131;-76
2022/05/06 06:37:53;;;;;;;6.45;3.45;;;11.80;99.90;;;;;;5057508;28;20182;-75
2022/05/06 06:40:22;;;;;;;5.40;3.60;;;11.80;99.90;;;;;;5052565;28;20508;-74
2022/05/06 06:42:50;;;;;;;3.85;2.90;;;11.80;99.90;;;;;;5056763;28;20040;-74
2022/05/06 06:45:27;;;;;;;10.30;3.70;;;11.90;99.90;;;;;;5068360;28;20044;-74
2022/05/06 06:48:11;;;;;;;7.95;3.35;;;11.90;99.90;;;;;;5076902;28;20052;-74
2022/05/06 06:50:45;;;;;;;5.85;3.22;;;11.90;99.90;;;;;;5072337;28;20048;-75
2022/05/06 06:53:33;;;;;;;5.93;3.00;;;11.90;99.90;;;;;;5085979;28;20076;-73
2022/05/06 06:55:59;;;;;;;4.57;3.13;;;11.90;99.90;;;;;;5094738;28;20040;-73
2022/05/06 06:58:26;;;;;;;5.97;3.05;;;11.90;99.90;;;;;;5093170;28;20516;-73
2022/05/06 07:00:53;;;;;;;3.78;2.95;;;11.90;99.90;;;;;;5089208;28;20500;-73
2022/05/06 07:03:20;;;;;;;7.38;3.47;;;11.90;99.90;;;;;;5094472;28;20036;-73
2022/05/06 07:14:04;;;;;;;3.03;2.50;;;12.00;99.90;;;;;;5094434;28;20044;-73
2022/05/06 07:16:31;;;;;;;4.63;2.90;;;11.90;99.90;;;;;;5093124;28;20044;-74
2022/05/06 07:18:58;;;;;;;4.30;2.88;;;12.00;99.90;;;;;;5076275;28;20040;-74
2022/05/06 07:21:25;;;;;;;3.83;3.00;;;12.00;99.90;;;;;;5093572;28;20040;-73
2022/05/06 07:23:51;;;;;;;5.43;3.05;;;12.00;99.90;;;;;;5093821;28;20467;-74
2022/05/06 07:26:18;;;;;;;5.93;3.40;;;12.00;99.90;;;;;;5092385;28;20101;-75
2022/05/06 07:28:45;;;;;;;5.75;3.50;;;12.00;99.90;;;;;;5093528;28;20048;-75
2022/05/06 07:31:12;;;;;;;;;;;12.00;99.90;;;;;;5093822;28;20051;-75
2022/05/06 07:33:39;;;;;;;4.72;3.50;;;12.00;99.90;;;;;;5075595;28;20303;-75
2022/05/06 07:36:06;;;;;;;4.68;3.47;;;12.00;99.90;;;;;;5085068;28;20492;-75
2022/05/06 07:38:33;;;;;;;5.57;3.15;;;12.10;99.90;;;;;;5093647;28;20036;-74
2022/05/06 07:41:01;;;;;;;8.23;3.20;;;12.20;99.90;;;;;;5093027;28;20048;-75
2022/05/06 07:43:27;;;;;;;5.65;3.30;;;12.20;99.90;;;;;;5075975;28;20044;-75
2022/05/06 07:45:55;;;;;;;4.03;3.28;;;12.30;99.90;;;;;;5089703;28;20048;-75
2022/05/06 07:48:22;;;;;;;;;;;12.30;99.90;;;;;;5093807;28;20044;-75
2022/05/06 07:50:49;;;;;;;6.03;3.55;;;12.40;99.90;;;;;;5093098;28;19927;-75
2022/05/06 07:53:16;;;;;;;3.75;2.75;;;12.50;99.90;;;;;;5090488;28;20048;-75
2022/05/06 07:55:48;;;;;;;4.30;2.78;;;12.50;99.90;;;;;;5091387;28;20028;-75
2022/05/06 07:58:14;;;;;;;8.55;3.20;;;12.50;99.90;;;;;;5093187;28;20040;-75
2022/05/06 08:00:43;;;;;;;5.22;3.63;;;12.40;99.90;;;;;;5093025;28;20048;-75
2022/05/06 08:05:59;;;;;;;9.48;3.30;;;12.30;99.90;;;;;;5093227;28;20047;-75
2022/05/06 08:08:27;;;;;;;6.63;3.60;;;12.20;99.90;;;;;;5092997;28;20055;-75
2022/05/06 08:10:54;;;;;;;5.88;3.78;;;12.20;99.90;;;;;;5089152;28;20051;-75
2022/05/06 08:13:21;;;;;;;;;;;12.20;99.90;;;;;;5092479;28;20039;-75
2022/05/06 08:15:50;;;;;;;9.93;4.13;;;12.30;99.90;;;;;;5093295;28;19919;-75
2022/05/06 08:18:17;;;;;;;7.95;4.18;;;12.20;99.90;;;;;;5093161;28;20093;-75
2022/05/06 08:20:44;;;;;;;7.10;4.22;;;12.30;99.90;;;;;;5089382;28;20048;-75
2022/05/06 08:23:11;;;;;;;6.95;4.72;;;12.30;99.90;;;;;;5090577;28;20043;-75
2022/05/06 08:25:38;;;;;;;9.50;5.32;;;12.40;99.90;;;;;;5092776;28;20411;-75
2022/05/06 08:28:07;;;;;;;4.82;4.13;;;12.50;99.90;;;;;;5091763;28;20040;-75
2022/05/06 08:30:34;;;;;;;7.47;4.65;;;12.60;99.90;;;;;;5091837;28;20043;-74
2022/05/06 08:33:01;;;;;;;8.40;5.00;;;12.70;99.90;;;;;;5092636;28;20393;-75
2022/05/06 08:35:28;;;;;;;7.55;4.60;;;12.70;99.90;;;;;;5074601;28;20096;-74
2022/05/06 08:37:57;;;;;;;7.53;4.35;;;12.70;99.90;;;;;;5089264;28;20097;-75
2022/05/06 08:40:31;;;;;;;6.97;4.35;;;12.80;99.90;;;;;;5091989;28;20086;-75
2022/05/06 08:42:58;;;;;;;8.35;4.78;;;12.80;99.90;;;;;;5092512;28;20123;-75
2022/05/06 08:51:03;;;;;;;5.20;4.32;;;12.90;99.90;;;;;;5092167;28;20072;-75
2022/05/06 08:53:32;;;;;;;5.30;3.85;;;13.00;99.90;;;;;;5090330;28;20519;-74
2022/05/06 08:56:02;;;;;;;9.75;4.35;;;12.90;99.90;;;;;;5088197;28;20480;-75
2022/05/06 08:58:34;;;;;;;5.63;4.35;;;12.90;99.90;;;;;;5054466;28;20128;-75
2022/05/06 09:01:09;;;;;;;4.88;4.03;;;13.00;99.90;;;;;;5071569;28;20037;-75
2022/05/06 09:03:48;;;;;;;6.47;4.15;;;13.00;99.90;;;;;;5077185;28;20115;-74
2022/05/06 09:06:21;;;;;;;8.93;4.57;;;13.10;99.90;;;;;;5091628;28;20049;-75
2022/05/06 09:08:50;;;;;;;14.73;4.53;;;13.20;99.90;;;;;;5085475;28;20048;-75
2022/05/06 09:11:18;;;;;;;9.05;4.07;;;13.40;99.90;;;;;;5090130;28;20040;-76
2022/05/06 09:13:52;;;;;;;9.38;4.32;;;13.40;99.90;;;;;;5092053;28;20056;-74
2022/05/06 09:16:40;;;;;;;5.28;3.97;;;13.40;99.90;;;;;;5091848;28;20040;-76
2022/05/06 09:19:22;;;;;;;7.80;3.50;;;13.40;99.90;;;;;;5090013;28;20044;-75
2022/05/06 09:22:18;;;;;;;5.10;4.07;;;13.40;99.90;;;;;;5088681;28;20044;-74
2022/05/06 09:24:50;;;;;;;7.03;3.97;;;13.40;99.90;;;;;;5057238;28;20060;-74
2022/05/06 09:27:18;;;;;;;6.55;3.95;;;13.40;99.90;;;;;;5073717;28;20097;-74
2022/05/06 09:29:47;;;;;;;6.82;3.53;;;13.40;99.90;;;;;;5088919;28;20028;-74
2022/05/06 09:32:18;;;;;;;5.22;3.67;;;13.40;99.90;;;;;;5084629;28;20097;-74
2022/05/06 09:37:47;;;;;;;8.13;3.92;;;13.50;99.90;;;;;;5076296;28;20044;-63
2022/05/06 09:40:16;;;;;;;10.55;4.03;;;13.50;99.90;;;;;;5054588;28;20040;-63
2022/05/06 09:42:45;;;;;;;5.95;3.42;;;13.40;99.90;;;;;;5068563;28;20051;-63
2022/05/06 09:45:14;;;;;;;6.13;3.30;;;13.30;99.90;;;;;;5074362;28;20042;-63
2022/05/06 09:47:42;;;;;;;6.32;3.58;;;13.20;99.90;;;;;;5101888;28;20040;-63
2022/05/06 09:50:10;;;;;;;6.90;3.50;;;13.10;99.90;;;;;;5098808;28;20048;-63
2022/05/06 09:52:37;;;;;;;6.55;4.30;;;13.00;99.90;;;;;;5101084;28;20077;-63
2022/05/06 09:55:06;;;;;;;10.45;5.18;;;12.90;99.90;;;;;;5094759;28;20052;-63
2022/05/06 09:57:35;;;;;;;7.10;4.13;;;12.90;99.90;;;;;;5100517;28;20039;-63
2022/05/06 10:00:04;;;;;;;8.38;4.55;;;12.90;99.90;;;;;;5097251;28;20127;-63
2022/05/06 10:02:32;;;;;;;6.28;4.57;;;12.90;99.90;;;;;;5079578;28;20045;-63
2022/05/06 10:04:59;;;;;;;;;;;12.90;99.90;;;;;;5071520;28;20041;-63
2022/05/06 10:07:27;;;;;;;6.80;4.47;;;12.80;99.90;;;;;;5085341;28;20362;-63
2022/05/06 10:10:05;;;;;;;9.15;4.80;;;12.90;99.90;;;;;;5096173;28;20039;-63
2022/05/06 10:12:39;;;;;;;10.85;4.32;;;13.00;99.90;;;;;;5091803;28;20048;-62
2022/05/06 10:15:08;;;;;;;13.10;5.18;;;13.10;99.90;;;;;;5072028;28;20044;-63
2022/05/06 10:17:50;;;;;;;8.60;5.03;;;13.20;99.90;;;;;;5090571;28;20089;-63
2022/05/06 10:20:35;;;;;;;11.70;4.50;;;13.30;99.90;;;;;;5094289;28;20104;-62
2022/05/06 10:23:08;;;;;;;8.15;5.05;;;13.30;99.90;;;;;;5094280;28;20068;-63
2022/05/06 10:25:44;;;;;;;7.65;4.80;;;13.30;99.90;;;;;;5094309;28;20040;-63
2022/05/06 10:34:24;;;;;;;9.27;5.78;;;13.70;99.90;;;;;;5074826;28;20052;-63
2022/05/06 10:36:53;;;;;;;8.05;5.10;;;14.10;99.90;;;;;;5093634;28;20040;-63
2022/05/06 10:39:23;;;;;;;10.40;5.85;;;14.50;99.90;;;;;;5094246;28;20439;-63
2022/05/06 10:42:06;;;;;;;8.45;5.18;;;14.60;99.90;;;;;;5093617;28;20043;-63
2022/05/06 10:44:37;;;;;;;7.32;5.00;;;14.60;99.90;;;;;;5092868;28;20044;-63
2022/05/06 10:47:12;;;;;;;10.45;5.40;;;14.70;99.90;;;;;;5093276;28;20035;-63
2022/05/06 10:49:39;;;;;;;11.63;6.60;;;14.60;99.90;;;;;;5093515;28;20036;-63
2022/05/06 10:52:19;;;;;;;12.80;7.38;;;14.50;99.90;;;;;;5094489;28;20040;-63
2022/05/06 10:54:50;;;;;;;9.90;6.75;;;14.40;99.90;;;;;;5094039;28;20044;-63
2022/05/06 10:57:22;;;;;;;11.93;6.15;;;14.40;99.90;;;;;;5092693;28;20062;-63
2022/05/06 10:59:51;;;;;;;11.18;6.75;;;14.40;99.90;;;;;;5094244;28;20040;-63
2022/05/06 11:02:24;;;;;;;9.82;6.43;;;14.20;99.90;;;;;;5093717;28;20044;-63
2022/05/06 11:05:01;;;;;;;10.05;7.05;;;14.10;99.90;;;;;;5092479;28;20117;-63
2022/05/06 11:07:30;;;;;;;8.75;5.78;;;13.90;99.90;;;;;;5092947;28;20044;-63
2022/05/06 11:09:57;;;;;;;12.80;8.35;;;13.90;99.90;;;;;;5093078;28;20105;-63
2022/05/06 11:12:36;;;;;;;11.45;8.07;;;13.80;99.90;;;;;;5091733;28;20110;-63
2022/05/06 11:15:05;;;;;;;16.92;7.22;;;13.80;99.90;;;;;;5092517;28;20561;-63
2022/05/06 11:17:33;;;;;;;10.25;7.05;;;13.90;99.90;;;;;;5092673;28;20040;-63
2022/05/06 11:20:03;;;;;;;12.50;8.20;;;13.90;99.90;;;;;;5091529;28;20057;-63
2022/05/06 11:22:33;;;;;;;11.13;7.20;;;13.90;99.90;;;;;;5084520;28;20097;-63
2022/05/06 11:25:03;;;;;;;13.30;8.00;;;13.90;99.90;;;;;;5093236;28;20396;-63
2022/05/06 11:27:35;;;;;;;12.98;8.75;;;13.90;99.90;;;;;;5089190;28;20047;-63
2022/05/06 11:30:02;;;;;;;17.55;9.68;;;13.80;99.90;;;;;;5090497;28;20032;-63
2022/05/06 11:32:29;;;;;;;14.30;8.70;;;13.90;99.90;;;;;;5091813;28;20036;-63
2022/05/06 11:35:02;;;;;;;18.77;9.80;;;13.90;99.90;;;;;;5071831;28;20403;-63
2022/05/06 11:37:32;;;;;;;14.23;9.40;;;14.00;99.90;;;;;;5084283;28;20044;-63
2022/05/06 11:42:45;;;;;;;17.58;10.65;;;14.10;99.90;;;;;;5085715;28;20039;-63
2022/05/06 11:48:11;;;;;;;19.20;11.13;;;14.30;99.90;;;;;;5086225;28;19973;-63
2022/05/06 11:50:39;;;;;;;21.55;11.10;;;14.40;99.90;;;;;;5085976;28;20032;-63
2022/05/06 11:53:08;;;;;;;16.65;10.60;;;14.40;99.90;;;;;;5091597;28;20036;-63
2022/05/06 11:55:36;;;;;;;23.13;11.65;;;14.80;99.90;;;;;;5092164;28;20064;-63
2022/05/06 11:58:07;;;;;;;23.15;13.13;;;14.30;99.90;;;;;;5089075;28;20459;-63
2022/05/06 12:00:34;;;;;;;21.15;12.82;;;14.30;99.90;;;;;;5092745;28;20492;-63
2022/05/06 12:03:07;;;;;;;22.88;12.77;;;14.40;99.90;;;;;;5089426;28;20126;-63
2022/05/06 12:05:35;;;;;;;21.35;13.13;;;14.40;99.90;;;;;;5086525;28;20078;-63
2022/05/06 12:08:02;;;;;;;21.70;12.90;;;14.50;99.90;;;;;;5090791;28;20479;-63
2022/05/06 12:10:32;;;;;;;23.65;13.77;;;14.60;99.90;;;;;;5092139;28;20089;-63
2022/05/06 12:12:59;;;;;;;22.55;13.82;;;14.80;99.90;;;;;;5089861;28;20560;-63
2022/05/06 12:15:34;;;;;;;27.33;15.52;;;15.00;99.90;;;;;;5091543;28;20040;-63
2022/05/06 12:18:25;;;;;;;21.05;13.07;;;15.20;99.90;;;;;;5090302;28;20048;-63
2022/05/06 12:20:51;;;;;;;24.95;14.63;;;15.40;99.90;;;;;;5090716;28;20044;-64
2022/05/06 12:23:28;;;;;;;25.55;14.73;;;15.50;99.90;;;;;;5090039;28;20047;-64
2022/05/06 12:25:57;;;;;;;24.52;14.60;;;15.50;99.90;;;;;;5073425;28;20085;-63
2022/05/06 12:28:24;;;;;;;22.33;14.20;;;15.60;99.90;;;;;;5089978;28;20130;-63
2022/05/06 12:30:59;;;;;;;24.98;15.18;;;15.60;99.90;;;;;;5089093;28;20040;-63
2022/05/06 12:33:37;;;;;;;22.50;14.18;;;15.70;99.90;;;;;;5089571;28;20063;-64
2022/05/06 12:36:05;;;;;;;23.00;13.70;;;15.70;99.90;;;;;;5090856;28;20519;-63
2022/05/06 12:38:41;;;;;;;28.33;15.82;;;15.80;99.90;;;;;;5089161;28;20040;-63
2022/05/06 12:41:26;;;;;;;27.13;15.18;;;15.80;99.90;;;;;;5088085;28;20504;-64
2022/05/06 12:43:57;;;;;;;22.85;13.38;;;15.80;99.90;;;;;;5089483;28;20512;-63
2022/05/06 12:46:28;;;;;;;28.17;15.80;;;15.90;99.90;;;;;;5090260;28;20044;-63
2022/05/06 12:51:45;;;;;;;23.10;14.55;;;15.90;99.90;;;;;;5091333;28;20101;-63
2022/05/06 12:54:12;;;;;;;28.13;16.20;;;15.80;99.90;;;;;;5090079;28;20373;-63
2022/05/06 12:56:40;;;;;;;28.92;16.88;;;15.60;99.90;;;;;;5072745;28;20127;-63
2022/05/06 12:59:07;;;;;;;27.92;17.00;;;15.50;99.90;;;;;;5054169;28;20036;-63
2022/05/06 13:01:34;;;;;;;;;;;15.40;99.90;;;;;;5090977;28;20040;-63
2022/05/06 13:04:02;;;;;;;29.85;17.15;;;15.20;99.90;;;;;;5086721;28;19920;-65
2022/05/06 13:06:32;;;;;;;34.95;18.08;;;15.00;99.90;;;;;;5090601;28;20036;-65
2022/05/06 13:08:59;;;;;;;31.42;18.33;;;14.80;99.90;;;;;;5088995;28;20570;-67
2022/05/06 13:11:26;;;;;;;40.17;19.63;;;14.70;99.90;;;;;;5090642;28;20039;-67
2022/05/06 13:13:54;;;;;;;34.42;18.85;;;14.50;99.90;;;;;;5086722;28;20557;-66
2022/05/06 13:16:21;;;;;;;38.60;20.10;;;14.60;99.90;;;;;;5090009;28;20551;-67
2022/05/06 13:18:50;;;;;;;31.80;18.98;;;14.60;99.90;;;;;;5090951;28;20044;-66
2022/05/06 13:21:17;;;;;;;33.35;19.33;;;14.80;99.90;;;;;;5090313;28;20047;-66
2022/05/06 13:23:44;;;;;;;31.30;18.67;;;15.00;99.90;;;;;;5085407;28;20545;-67
2022/05/06 13:26:11;;;;;;;32.00;18.23;;;15.10;99.90;;;;;;5091617;28;20187;-67
2022/05/06 13:28:38;;;;;;;;;;;15.30;99.90;;;;;;5085349;28;20051;-67
2022/05/06 13:31:05;;;;;;;32.90;18.98;;;15.50;99.90;;;;;;5090395;28;19931;-67
2022/05/06 13:33:31;;;;;;;33.05;18.42;;;15.40;99.90;;;;;;5091677;28;20055;-66
2022/05/06 13:35:59;;;;;;;32.83;19.13;;;15.40;99.90;;;;;;5091337;28;20067;-67
2022/05/06 13:38:26;;;;;;;29.98;18.60;;;15.40;99.90;;;;;;5072484;28;20093;-67
2022/05/06 13:40:53;;;;;;;27.17;17.38;;;15.30;99.90;;;;;;5087392;28;20554;-68
2022/05/06 13:43:20;;;;;;;29.70;18.05;;;15.30;99.90;;;;;;5084617;28;20036;-67
2022/05/06 13:45:46;;;;;;;30.30;18.58;;;15.30;99.90;;;;;;5073230;28;20064;-67
2022/05/06 13:48:13;;;;;;;33.00;19.33;;;15.10;99.90;;;;;;5085404;28;20050;-67
2022/05/06 13:50:40;;;;;;;30.80;17.23;;;15.10;99.90;;;;;;5090219;28;20040;-67